This is the latest recevied weather packets stored in our database for station/object N0FDH. If no packets are shown the sender has not sent any weather packets the latest 10 day(s).
| Time | Temp. | Humidity | Pressure | Rain* | Wind** | Luminosity | Snow |
|---|---|---|---|---|---|---|---|
| 1777728309 | 6.11° C | 54% | 1017.5 hPa | 0 mm | - | 68 W/m² | - |
| 1777728006 | 5.56° C | 59% | 1017.5 hPa | 0 mm | - | 69 W/m² | - |
| 1777727703 | 5° C | 63% | 1017.6 hPa | 0 mm | - | 66 W/m² | - |
| 1777727400 | 4.44° C | 64% | 1017.7 hPa | 0 mm | - | 71 W/m² | - |
| 1777727097 | 4.44° C | 66% | 1017.5 hPa | 0 mm | - | 48 W/m² | - |
| 1777726795 | 3.89° C | 67% | 1017.6 hPa | 0 mm | - | 59 W/m² | - |
| 1777726492 | 3.89° C | 66% | 1017.5 hPa | 0 mm | - | 52 W/m² | - |
| 1777726189 | 3.33° C | 70% | 1017.6 hPa | 0 mm | - | 35 W/m² | - |
| 1777725885 | 2.78° C | 72% | 1017.8 hPa | 0 mm | - | 58 W/m² | - |
| 1777725583 | 2.22° C | 73% | 1017.7 hPa | 0 mm | - | 29 W/m² | - |
| 1777725280 | 2.22° C | 73% | 1017.6 hPa | 0 mm | - | 35 W/m² | - |
| 1777724977 | 1.67° C | 73% | 1017.5 hPa | 0 mm | - | 36 W/m² | - |
| 1777724673 | 1.11° C | 74% | 1017.5 hPa | 0 mm | - | 28 W/m² | - |
| 1777724372 | 0.56° C | 75% | 1017.6 hPa | 0 mm | - | 34 W/m² | - |
| 1777724068 | 0.56° C | 75% | 1017.5 hPa | 0 mm | - | 33 W/m² | - |
| 1777723766 | 0° C | 76% | 1017.5 hPa | 0 mm | - | 23 W/m² | - |
| 1777723462 | 0° C | 77% | 1017.6 hPa | 0 mm | - | 22 W/m² | - |
| 1777723159 | -0.56° C | 77% | 1017.6 hPa | 0 mm | - | 28 W/m² | - |
| 1777722856 | -0.56° C | 78% | 1017.6 hPa | 0 mm | - | 26 W/m² | - |
| 1777722552 | -1.11° C | 79% | 1017.5 hPa | 0 mm | - | 19 W/m² | - |
| 1777722249 | -1.11° C | 79% | 1017.6 hPa | 0 mm | - | 18 W/m² | - |
| 1777721946 | -1.11° C | 79% | 1017.7 hPa | 0 mm | - | 16 W/m² | - |
| 1777721644 | -1.11° C | 79% | 1017.5 hPa | 0 mm | - | 14 W/m² | - |
| 1777721342 | -1.11° C | 79% | 1017.4 hPa | 0 mm | - | 13 W/m² | - |
| 1777721040 | -1.11° C | 79% | 1017.4 hPa | 0 mm | - | 11 W/m² | - |
* Rain latest hour (hover to see other rain measurements)
** Current wind speed in m/s (hover to see current wind gust speed)